createdAt,value
2018-06-14T11:30:54.781Z,91.50
2018-06-14T11:33:22.952Z,89.80
2018-06-14T11:35:51.112Z,75.70
2018-06-14T11:38:19.280Z,72.00
2018-06-14T11:40:47.450Z,72.90
2018-06-14T11:43:15.639Z,73.20
2018-06-14T11:45:43.812Z,74.30
2018-06-14T11:48:12.105Z,70.50
2018-06-14T11:50:40.289Z,69.40
2018-06-14T11:53:08.492Z,65.60
2018-06-14T11:55:36.687Z,64.80
2018-06-14T11:58:05.233Z,62.20
2018-06-14T12:00:33.413Z,63.10
2018-06-14T12:03:01.625Z,63.40
2018-06-14T12:05:29.814Z,65.00
2018-06-14T12:10:25.933Z,67.60
2018-06-14T12:12:54.121Z,65.70
2018-06-14T12:15:22.287Z,61.20
2018-06-14T12:17:50.494Z,61.20
2018-06-14T12:20:18.687Z,59.90
2018-06-14T12:22:46.860Z,62.40
2018-06-14T12:25:15.026Z,63.10
2018-06-14T12:27:43.213Z,63.10
2018-06-14T12:30:11.397Z,59.70
2018-06-14T12:32:39.584Z,57.80
2018-06-14T12:35:07.762Z,54.70
2018-06-14T12:37:35.951Z,57.90
2018-06-14T12:40:04.109Z,58.00
2018-06-14T12:42:32.295Z,57.90
2018-06-14T12:45:00.464Z,56.10
2018-06-14T12:47:28.641Z,56.00
2018-06-14T12:52:24.844Z,54.70
2018-06-14T12:54:52.942Z,55.80
2018-06-14T12:57:21.200Z,56.80
2018-06-14T12:59:49.365Z,56.50
2018-06-14T13:02:17.546Z,55.00
2018-06-14T13:04:45.726Z,57.60
2018-06-14T13:07:13.921Z,58.00
2018-06-14T13:09:42.091Z,58.80
2018-06-14T13:12:10.298Z,59.00
2018-06-14T13:14:38.456Z,58.50
2018-06-14T13:17:06.657Z,59.00
2018-06-14T13:19:34.833Z,60.00
2018-06-14T13:22:03.031Z,58.70
2018-06-14T13:24:42.869Z,59.80
2018-06-14T13:27:12.319Z,59.30
2018-06-14T13:29:41.034Z,58.90
2018-06-14T13:32:09.366Z,59.20
2018-06-14T13:37:05.986Z,60.10
2018-06-14T13:39:34.168Z,59.70
2018-06-14T13:42:02.666Z,59.50
2018-06-14T13:44:30.831Z,60.70
2018-06-14T13:46:58.997Z,62.30
2018-06-14T13:49:27.184Z,62.90
2018-06-14T13:51:55.357Z,62.10
2018-06-14T13:54:23.532Z,59.80
2018-06-14T13:56:51.724Z,59.80
2018-06-14T13:59:19.887Z,60.10
2018-06-14T14:01:48.051Z,59.20
2018-06-14T14:04:16.224Z,59.60
2018-06-14T14:06:44.378Z,61.30
2018-06-14T14:09:13.181Z,59.80
2018-06-14T14:11:41.757Z,58.30
2018-06-14T14:14:09.949Z,59.90
2018-06-14T14:16:38.405Z,60.80
2018-06-14T14:19:06.576Z,59.90
2018-06-14T14:21:34.770Z,58.80
2018-06-14T14:24:02.952Z,59.60
2018-06-14T14:26:31.155Z,60.90
2018-06-14T14:28:59.337Z,58.80
2018-06-14T14:31:27.604Z,57.80
2018-06-14T14:33:55.760Z,56.60
2018-06-14T14:36:23.991Z,56.50
2018-06-14T14:38:52.177Z,57.80
2018-06-14T14:41:20.353Z,57.50
2018-06-14T14:46:16.510Z,57.20
2018-06-14T14:48:44.768Z,58.20
2018-06-14T14:51:12.966Z,57.60
2018-06-14T14:53:41.172Z,58.90
2018-06-14T14:56:09.373Z,58.70
2018-06-14T14:58:37.549Z,58.80
2018-06-14T15:01:05.718Z,60.50
2018-06-14T15:03:33.895Z,59.40
2018-06-14T15:06:02.087Z,59.80
2018-06-14T15:08:30.278Z,60.70
2018-06-14T15:10:58.437Z,59.50
2018-06-14T15:13:26.614Z,59.10
2018-06-14T15:15:54.807Z,57.60
2018-06-14T15:18:22.984Z,52.10
2018-06-14T15:20:51.250Z,50.50
2018-06-14T15:23:19.426Z,46.30
2018-06-14T15:25:47.600Z,43.40
2018-06-14T15:28:15.774Z,40.20
2018-06-14T15:30:43.969Z,37.40
2018-06-14T15:33:12.142Z,34.30
2018-06-14T15:35:40.352Z,31.30
2018-06-14T15:38:08.519Z,30.50
2018-06-14T15:40:36.797Z,30.00
2018-06-14T15:43:05.012Z,28.70
2018-06-14T15:45:33.378Z,27.80
2018-06-14T15:48:01.702Z,27.90
2018-06-14T15:50:30.332Z,27.90
2018-06-14T15:52:58.497Z,27.20
2018-06-14T15:55:42.434Z,26.20
2018-06-14T15:58:10.644Z,26.70
2018-06-14T16:00:38.842Z,27.40
2018-06-14T16:03:07.029Z,28.50
2018-06-14T16:08:03.396Z,32.70
2018-06-14T16:10:31.601Z,32.10
2018-06-14T16:12:59.753Z,34.70
2018-06-14T16:15:27.937Z,37.00
2018-06-14T16:17:56.282Z,36.90
2018-06-14T16:20:24.482Z,39.40
2018-06-14T16:22:52.663Z,38.30
2018-06-14T16:25:20.847Z,37.90
2018-06-14T16:27:49.024Z,39.20
2018-06-14T16:30:17.204Z,41.50
2018-06-14T16:32:45.368Z,42.60
2018-06-14T16:35:13.542Z,41.60
2018-06-14T16:37:41.733Z,43.40
2018-06-14T16:40:09.916Z,43.60
2018-06-14T16:42:38.078Z,44.10
2018-06-14T16:45:06.328Z,45.80
2018-06-14T16:47:34.501Z,45.30
2018-06-14T16:50:02.685Z,45.60
2018-06-14T16:52:30.872Z,45.00
2018-06-14T16:54:59.043Z,45.60
2018-06-14T16:57:27.241Z,46.80
2018-06-14T16:59:55.437Z,47.00
2018-06-14T17:02:23.707Z,47.20
2018-06-14T17:04:51.954Z,46.90
2018-06-14T17:07:20.102Z,47.10
2018-06-14T17:09:48.274Z,48.90
2018-06-14T17:12:16.459Z,50.20
2018-06-14T17:14:44.661Z,50.90
2018-06-14T17:17:12.824Z,51.10
2018-06-14T17:19:41.020Z,50.40
2018-06-14T17:22:09.216Z,50.40
2018-06-14T17:24:37.404Z,49.30
2018-06-14T17:27:05.772Z,50.50
2018-06-14T17:29:34.020Z,51.10
2018-06-14T17:32:02.309Z,53.10
2018-06-14T17:34:30.565Z,53.80
2018-06-14T17:36:59.236Z,54.70
2018-06-14T17:39:27.705Z,55.40
2018-06-14T17:41:55.879Z,56.90
2018-06-14T17:44:24.058Z,58.30
2018-06-14T17:46:52.250Z,59.50
2018-06-14T17:49:20.448Z,59.80
2018-06-14T17:51:48.640Z,61.10
2018-06-14T17:54:16.821Z,61.00
2018-06-14T17:56:45.160Z,61.70
2018-06-14T17:59:13.454Z,63.10
2018-06-14T18:01:41.652Z,64.20
2018-06-14T18:04:09.821Z,65.40
2018-06-14T18:06:38.127Z,66.60
2018-06-14T18:09:07.842Z,67.90
2018-06-14T18:11:36.037Z,69.40
2018-06-14T18:14:04.998Z,71.10
2018-06-14T18:16:33.308Z,72.50
2018-06-14T18:19:01.481Z,73.90
2018-06-14T18:21:29.754Z,75.00
2018-06-14T18:23:58.007Z,75.90
2018-06-14T18:26:26.152Z,76.80
2018-06-14T18:28:54.838Z,77.90
2018-06-14T18:31:23.017Z,78.50
2018-06-14T18:33:51.202Z,79.00
2018-06-14T18:36:19.872Z,80.00
2018-06-14T18:38:48.046Z,81.10
2018-06-14T18:41:16.263Z,80.80
2018-06-14T18:43:44.452Z,81.80
2018-06-14T18:46:12.653Z,82.40
2018-06-14T18:48:43.594Z,83.10
2018-06-14T18:51:12.997Z,83.20
2018-06-14T18:53:41.182Z,84.00
2018-06-14T18:56:09.396Z,84.30
2018-06-14T18:58:37.629Z,84.60
2018-06-14T19:01:05.974Z,85.10
2018-06-14T19:03:34.154Z,85.80
2018-06-14T19:06:02.344Z,86.20
2018-06-14T19:08:30.580Z,87.00
2018-06-14T19:10:58.755Z,87.70
2018-06-14T19:13:26.965Z,88.20
2018-06-14T19:15:55.143Z,88.20
2018-06-14T19:18:23.374Z,88.20
2018-06-14T19:20:51.559Z,87.90
2018-06-14T19:23:19.781Z,89.70
2018-06-14T19:25:47.957Z,89.30
2018-06-14T19:28:16.218Z,89.60
2018-06-14T19:30:44.417Z,89.70
2018-06-14T19:33:12.620Z,89.90
2018-06-14T19:35:40.804Z,90.00
2018-06-14T19:38:08.994Z,90.10
2018-06-14T19:40:37.413Z,90.50
2018-06-14T19:43:05.608Z,90.60
2018-06-14T19:45:33.816Z,90.80
2018-06-14T19:48:02.014Z,90.90
2018-06-14T19:50:30.293Z,90.90
2018-06-14T19:52:58.500Z,90.80
2018-06-14T19:55:26.700Z,90.90
2018-06-14T19:57:54.892Z,91.00
2018-06-14T20:00:24.592Z,91.10
2018-06-14T20:02:52.836Z,91.10
2018-06-14T20:05:21.503Z,91.20
2018-06-14T20:07:49.701Z,91.30
2018-06-14T20:10:17.881Z,91.50
2018-06-14T20:12:46.072Z,91.40
2018-06-14T20:15:14.240Z,91.50
2018-06-14T20:17:42.436Z,91.70
2018-06-14T20:20:11.029Z,91.80
2018-06-14T20:22:39.232Z,91.70
2018-06-14T20:25:07.398Z,91.90
2018-06-14T20:27:35.605Z,91.90
2018-06-14T20:30:03.825Z,92.00
2018-06-14T20:32:31.989Z,92.10
2018-06-14T20:35:00.205Z,92.20
2018-06-14T20:37:28.373Z,92.30
2018-06-14T20:39:56.568Z,92.50
2018-06-14T20:42:24.752Z,93.00
2018-06-14T20:44:52.920Z,93.00
2018-06-14T20:47:21.109Z,93.20
2018-06-14T20:49:49.554Z,93.30
2018-06-14T20:52:17.739Z,93.40
2018-06-14T20:54:45.929Z,93.40
2018-06-14T20:57:14.130Z,93.60
2018-06-14T20:59:42.317Z,93.80
2018-06-14T21:02:10.505Z,93.80
2018-06-14T21:04:38.709Z,94.00
2018-06-14T21:07:07.147Z,94.00
2018-06-14T21:09:35.495Z,94.20
2018-06-14T21:12:03.716Z,94.20
2018-06-14T21:14:31.913Z,94.10
2018-06-14T21:17:00.545Z,94.20
2018-06-14T21:19:28.727Z,94.30
2018-06-14T21:21:56.905Z,94.40
2018-06-14T21:24:25.084Z,94.40
2018-06-14T21:26:53.272Z,94.30
2018-06-14T21:29:21.597Z,94.30
2018-06-14T21:31:52.574Z,94.40
2018-06-14T21:34:20.811Z,94.60
2018-06-14T21:36:48.984Z,94.70
2018-06-14T21:39:17.168Z,94.70
2018-06-14T21:41:45.516Z,94.80
2018-06-14T21:44:13.679Z,94.90
2018-06-14T21:46:41.872Z,95.20
2018-06-14T21:49:10.139Z,95.40
2018-06-14T21:51:38.312Z,95.60
2018-06-14T21:56:34.494Z,96.00
2018-06-14T21:59:03.019Z,96.10
2018-06-14T22:01:31.618Z,96.10
2018-06-14T22:04:02.062Z,96.10
2018-06-14T22:06:30.630Z,96.10
2018-06-14T22:08:59.309Z,96.00
2018-06-14T22:11:27.500Z,96.00
2018-06-14T22:13:55.714Z,96.00
2018-06-14T22:16:24.344Z,96.00
2018-06-14T22:18:52.525Z,96.00
2018-06-14T22:21:20.718Z,96.00
2018-06-14T22:23:48.907Z,96.10
2018-06-14T22:26:17.100Z,96.20
2018-06-14T22:28:45.281Z,96.20
2018-06-14T22:31:13.468Z,96.20
2018-06-14T22:33:52.828Z,96.50
2018-06-14T22:36:20.996Z,96.50
2018-06-14T22:38:49.168Z,96.60
2018-06-14T22:41:17.363Z,96.50
2018-06-14T22:43:45.538Z,96.40
2018-06-14T22:46:13.716Z,96.50
2018-06-14T22:48:41.894Z,96.50
2018-06-14T22:51:18.116Z,96.70
2018-06-14T22:58:42.599Z,96.80
2018-06-14T23:01:48.986Z,96.80
2018-06-14T23:04:25.945Z,96.90
2018-06-14T23:06:54.244Z,96.90
2018-06-14T23:10:33.589Z,97.00
2018-06-14T23:13:02.015Z,96.80
2018-06-14T23:15:30.235Z,97.00
2018-06-14T23:17:58.599Z,97.00
2018-06-14T23:20:27.796Z,97.10
2018-06-14T23:22:57.011Z,97.00
2018-06-14T23:25:26.084Z,97.10
2018-06-14T23:27:54.326Z,97.10
2018-06-14T23:30:22.548Z,97.00
2018-06-14T23:32:51.229Z,97.00
2018-06-14T23:35:19.618Z,97.10
2018-06-14T23:37:47.797Z,97.10
2018-06-14T23:40:15.993Z,97.10
2018-06-14T23:42:44.169Z,97.20
2018-06-14T23:45:12.300Z,97.10
2018-06-14T23:47:40.468Z,97.10
2018-06-14T23:50:08.747Z,97.10
2018-06-14T23:52:36.893Z,97.10
2018-06-14T23:55:05.037Z,97.20
2018-06-14T23:57:33.172Z,97.20
